Metar Report
Metar
METAR K1B1 131356Z AUTO 00000KT 3SM BR OVC002 14/14 A2995 A02 4
METAR K1B1 131256Z AUTO 00000KT 1/4SM FG OVC002 13/13 A2996 A02 3
METAR K1B1 131156Z AUTO 00000KT 1/4SM FG OVC002 12/12 A2995 A02 2
METAR K1B1 131107Z AUTO 00000KT M1/4SM FG OVC002 11/10 A2995 A02 1
METAR K1B1 130656Z AUTO 00000KT 10SM SCT001 11/11 A2992 A02 0
METAR K1B1 130556Z AUTO 00000KT 10SM CLR 12/11 A2992 A02 69
METAR K1B1 130456Z AUTO 00000KT 10SM CLR 12/12 A2992 A02 68
METAR K1B1 130356Z AUTO 00000KT 10SM CLR 13/12 A2992 A02 67
METAR K1B1 130256Z AUTO 00000KT 7SM CLR 14/13 A2992 A02 66
METAR K1B1 130156Z AUTO 00000KT 10SM CLR 15/14 A2992 A02 65
METAR K1B1 130056Z AUTO 00000KT 10SM CLR 16/15 A2993 A02 64
METAR K1B1 122356Z AUTO 00000KT 10SM CLR 18/16 A2992 A02 63
METAR K1B1 122256Z AUTO 00000KT 10SM CLR 21/17 A2992 A02 62
METAR K1B1 122139Z AUTO MMMMMKT MM MM MM/MM AMM A02 61
METAR K1B1 101156Z AUTO 00000KT 10SM CLR 10/09 A3041 A02 60
METAR K1B1 101056Z AUTO 00000KT 10SM CLR 07/07 A3040 A02 59
METAR K1B1 100956Z AUTO 00000KT 10SM SCT065 07/07 A3038 A02 58
METAR K1B1 100856Z AUTO 00000KT 10SM CLR 08/07 A3037 A02 57
METAR K1B1 100756Z AUTO 00000KT 10SM CLR 08/08 A3036 A02 56
METAR K1B1 100656Z AUTO 00000KT 10SM CLR 09/08 A3035 A02 55
METAR K1B1 100556Z AUTO 00000KT 10SM CLR 09/09 A3035 A02 54
METAR K1B1 100456Z AUTO 00000KT 10SM BKN035 11/09 A3034 A02 53
METAR K1B1 100356Z AUTO 00000KT 10SM CLR 11/10 A3034 A02 52
METAR K1B1 100256Z AUTO 00000KT 10SM CLR 11/11 A3034 A02 51
METAR K1B1 100156Z AUTO 00000KT 10SM CLR 12/11 A3033 A02 50
METAR K1B1 100056Z AUTO 00000KT 10SM BKN050 BKN070 14/12 A3032 A02 49
METAR K1B1 092356Z AUTO 00000KT 10SM SCT044 OVC080 15/12 A3031 A02 48
METAR K1B1 092256Z AUTO 00000KT 10SM SCT080 17/12 A3028 A02 47
METAR K1B1 092156Z AUTO 01003KT 10SM BKN075 OVC080 18/11 A3028 A02 46
METAR K1B1 092056Z AUTO 36007KT 10SM SCT070 19/11 A3027 A02 45
METAR K1B1 091956Z AUTO 33007KT 10SM SCT070 19/11 A3027 A02 44
METAR K1B1 091856Z AUTO 35005KT 10SM BKN060 19/11 A3028 A02 43
METAR K1B1 091756Z AUTO 36007KT 10SM SCT046 OVC050 18/10 A3030 A02 42
METAR K1B1 091656Z AUTO 32005KT 10SM BKN035 18/10 A3031 A02 41
METAR K1B1 091556Z AUTO 05008KT 10SM OVC036 17/10 A3032 A02 40
METAR K1B1 091456Z AUTO 04004KT 10SM BKN020 BKN025 OVC043 15/10 A3031 A02 39
METAR K1B1 091356Z AUTO 02004KT 10SM BKN033 OVC041 13/09 A3032 A02 38
METAR K1B1 091256Z AUTO 00000KT 10SM OVC038 12/09 A3030 A02 37
METAR K1B1 091156Z AUTO 00000KT 10SM CLR 09/08 A3030 A02 36
METAR K1B1 091056Z AUTO 00000KT 10SM CLR 06/06 A3028 A02 35
METAR K1B1 090956Z AUTO 00000KT 10SM CLR 07/06 A3026 A02 34
METAR K1B1 090856Z AUTO 00000KT 10SM CLR 07/06 A3024 A02 33
METAR K1B1 090756Z AUTO 00000KT 10SM CLR 07/07 A3023 A02 32
METAR K1B1 090656Z AUTO 00000KT 10SM CLR 08/07 A3022 A02 31
METAR K1B1 090556Z AUTO 00000KT 10SM CLR 08/08 A3021 A02 30
METAR K1B1 090456Z AUTO 00000KT 10SM CLR 09/08 A3021 A02 29
METAR K1B1 090356Z AUTO 00000KT 10SM CLR 09/09 A3020 A02 28
METAR K1B1 090256Z AUTO 00000KT 10SM CLR 10/09 A3019 A02 27
METAR K1B1 090156Z AUTO 00000KT 10SM CLR 11/11 A3018 A02 26
METAR K1B1 090056Z AUTO 00000KT 10SM SCT080 12/11 A3017 A02 25
METAR K1B1 082356Z AUTO 00000KT 10SM SCT080 BKN090 13/12 A3015 A02 24
METAR K1B1 082256Z AUTO 12003KT 10SM OVC080 14/12 A3013 A02 23
METAR K1B1 082156Z AUTO 00000KT 10SM SCT060 OVC070 14/12 A3013 A02 22
METAR K1B1 082056Z AUTO 01006KT 10SM DZ SCT060 OVC080 18/12 A3010 A02 21
METAR K1B1 081956Z AUTO 35007KT 10SM SCT050 BKN065 BKN085 21/10 A3008 A02 20
METAR K1B1 081856Z AUTO 24005KT 10SM SCT049 OVC080 21/09 A3008 A02 19
METAR K1B1 081756Z AUTO 31006KT 10SM SCT049 SCT055 OVC080 21/10 A3008 A02 18
METAR K1B1 081656Z AUTO 32008KT 10SM SCT060 SCT070 SCT080 21/11 A3008 A02 17
METAR K1B1 081556Z AUTO 28007KT 10SM SCT034 SCT050 19/11 A3007 A02 16
METAR K1B1 081456Z AUTO 01003KT 10SM CLR 18/12 A3008 A02 15
METAR K1B1 081356Z AUTO 00000KT 10SM SCT016 SCT110 16/12 A3009 A02 14
METAR K1B1 081256Z AUTO 19005KT 10SM BKN065 14/11 A3007 A02 13
METAR K1B1 081156Z AUTO 00000KT 10SM SCT080 BKN095 BKN120 13/11 A3007 A02 12
METAR K1B1 081056Z AUTO 00000KT 10SM SCT100 BKN120 11/10 A3005 A02 11
METAR K1B1 080956Z AUTO 00000KT 10SM CLR 10/09 A3004 A02 10
METAR K1B1 080856Z AUTO 00000KT 10SM CLR 10/09 A3002 A02 9
METAR K1B1 080756Z AUTO 00000KT 10SM CLR 11/10 A3001 A02 8
METAR K1B1 080656Z AUTO 00000KT 10SM CLR 11/10 A3001 A02 7
METAR K1B1 080556Z AUTO 00000KT 10SM CLR 10/10 A3000 A02 6
METAR K1B1 080456Z AUTO 00000KT 10SM CLR 11/11 A2999 A02 5